Bon Accord, Canada
Current Conditions -  °F | °C
As of 8:00 AM on Monday 22 Dec 2014 (Local Time) from CYED Reporting Station
Overcast Overcast  
Wind Chill: 16°   Ceiling: 4900
Heat Index: 27°   Visibility: 9mi
Dew Point: 23°   Wind: 12mph
Humidity: 86%   Direction: 280°W
Pressure: 29.75"   Gusts: NA
Location:  53.83°N, 113.42°W
Report Text: CYED 221500Z AUTO 28010KT 9SM OVC049 M03/M05 A2975 RMK SLP109
Loading
Personal Weather Stations






























Interactive Weather Map New forecast layout! Learn more

10-Day Weather Forecast

Advertisements
Track Severe Weather on mobile